WEATHER/FLIGHT PLANNING

Hattiesburg Radar

 

 

 

 

Weather Links

Flight Planning Links

 

METAR

2016/05/03 00:53 KHBG 030053Z AUTO 04003KT 10SM SCT026 SCT035 23/21 A2994 RMK AO2 SLP134 T02330206

TAF

2016/05/02 22:33 TAF AMD KHBG 022131Z 0222/0318 22014KT P6SM FEW030 FEW070 FM030200 35006KT P6SM -RA BKN007 OVC015 FM031400 36005KT P6SM BKN025 BKN050